sensor_id;sensor_type;location;lat;lon;timestamp;temperature;humidity
46676;DHT22;32412;51.478;5.694;2023-03-01T00:01:48;-0.70;99.90
46676;DHT22;32412;51.478;5.694;2023-03-01T00:04:14;-0.70;99.90
46676;DHT22;32412;51.478;5.694;2023-03-01T00:06:47;-0.70;99.90
46676;DHT22;32412;51.478;5.694;2023-03-01T00:09:14;-0.80;99.90
46676;DHT22;32412;51.478;5.694;2023-03-01T00:11:41;-0.80;99.90
46676;DHT22;32412;51.478;5.694;2023-03-01T00:14:09;-0.90;99.90
46676;DHT22;32412;51.478;5.694;2023-03-01T00:16:43;-1.00;99.90
46676;DHT22;32412;51.478;5.694;2023-03-01T00:19:15;-1.10;99.90
46676;DHT22;32412;51.478;5.694;2023-03-01T00:21:44;-1.00;99.90
46676;DHT22;32412;51.478;5.694;2023-03-01T00:24:16;-1.10;99.90
46676;DHT22;32412;51.478;5.694;2023-03-01T00:26:43;-1.10;99.90
46676;DHT22;32412;51.478;5.694;2023-03-01T00:29:14;-1.20;99.90
46676;DHT22;32412;51.478;5.694;2023-03-01T00:31:48;-1.30;99.90
46676;DHT22;32412;51.478;5.694;2023-03-01T00:34:22;-1.30;99.90
46676;DHT22;32412;51.478;5.694;2023-03-01T00:36:54;-1.30;99.90
46676;DHT22;32412;51.478;5.694;2023-03-01T00:39:26;-1.40;99.90
46676;DHT22;32412;51.478;5.694;2023-03-01T00:41:52;-1.40;99.90
46676;DHT22;32412;51.478;5.694;2023-03-01T00:44:24;-1.40;99.90
46676;DHT22;32412;51.478;5.694;2023-03-01T00:46:54;-1.40;99.90
46676;DHT22;32412;51.478;5.694;2023-03-01T00:49:29;-1.40;99.90
46676;DHT22;32412;51.478;5.694;2023-03-01T00:51:57;-1.40;99.90
46676;DHT22;32412;51.478;5.694;2023-03-01T00:54:23;-1.30;99.90
46676;DHT22;32412;51.478;5.694;2023-03-01T00:56:49;-1.20;99.90
46676;DHT22;32412;51.478;5.694;2023-03-01T00:59:15;-1.30;99.90
46676;DHT22;32412;51.478;5.694;2023-03-01T01:01:43;-1.30;99.90
46676;DHT22;32412;51.478;5.694;2023-03-01T01:04:11;-1.30;99.90
46676;DHT22;32412;51.478;5.694;2023-03-01T01:06:39;-1.40;99.90
46676;DHT22;32412;51.478;5.694;2023-03-01T01:09:14;-1.50;99.90
46676;DHT22;32412;51.478;5.694;2023-03-01T01:11:49;-1.60;99.90
46676;DHT22;32412;51.478;5.694;2023-03-01T01:14:22;-1.60;99.90
46676;DHT22;32412;51.478;5.694;2023-03-01T01:16:52;-1.60;99.90
46676;DHT22;32412;51.478;5.694;2023-03-01T01:19:18;-1.60;99.90
46676;DHT22;32412;51.478;5.694;2023-03-01T01:21:49;-1.70;99.90
46676;DHT22;32412;51.478;5.694;2023-03-01T01:24:15;-1.70;99.90
46676;DHT22;32412;51.478;5.694;2023-03-01T01:26:41;-1.70;99.90
46676;DHT22;32412;51.478;5.694;2023-03-01T01:29:07;-1.70;99.90
46676;DHT22;32412;51.478;5.694;2023-03-01T01:31:36;-1.70;99.90
46676;DHT22;32412;51.478;5.694;2023-03-01T01:34:05;-1.80;99.90
46676;DHT22;32412;51.478;5.694;2023-03-01T01:36:33;-1.80;99.90
46676;DHT22;32412;51.478;5.694;2023-03-01T01:38:59;-1.80;99.90
46676;DHT22;32412;51.478;5.694;2023-03-01T01:41:29;-1.80;99.90
46676;DHT22;32412;51.478;5.694;2023-03-01T01:44:16;-1.70;99.90
46676;DHT22;32412;51.478;5.694;2023-03-01T01:46:55;-1.70;99.90
46676;DHT22;32412;51.478;5.694;2023-03-01T01:49:25;-1.70;99.90
46676;DHT22;32412;51.478;5.694;2023-03-01T01:52:00;-1.70;99.90
46676;DHT22;32412;51.478;5.694;2023-03-01T01:57:26;-1.60;99.90
46676;DHT22;32412;51.478;5.694;2023-03-01T01:59:57;-1.60;99.90
46676;DHT22;32412;51.478;5.694;2023-03-01T02:02:25;-1.50;99.90
46676;DHT22;32412;51.478;5.694;2023-03-01T02:04:55;-1.60;99.90
46676;DHT22;32412;51.478;5.694;2023-03-01T02:07:26;-1.50;99.90
46676;DHT22;32412;51.478;5.694;2023-03-01T02:09:52;-1.50;99.90
46676;DHT22;32412;51.478;5.694;2023-03-01T02:12:21;-1.60;99.90
46676;DHT22;32412;51.478;5.694;2023-03-01T02:14:48;-1.60;99.90
46676;DHT22;32412;51.478;5.694;2023-03-01T02:17:16;-1.60;99.90
46676;DHT22;32412;51.478;5.694;2023-03-01T02:22:30;-1.50;99.90
46676;DHT22;32412;51.478;5.694;2023-03-01T02:25:06;-1.60;99.90
46676;DHT22;32412;51.478;5.694;2023-03-01T02:27:49;-1.60;99.90
46676;DHT22;32412;51.478;5.694;2023-03-01T02:30:20;-1.70;99.90
46676;DHT22;32412;51.478;5.694;2023-03-01T02:32:47;-1.70;99.90
46676;DHT22;32412;51.478;5.694;2023-03-01T02:35:15;-1.80;99.90
46676;DHT22;32412;51.478;5.694;2023-03-01T02:37:43;-1.80;99.90
46676;DHT22;32412;51.478;5.694;2023-03-01T02:40:13;-1.80;99.90
46676;DHT22;32412;51.478;5.694;2023-03-01T02:43:02;-1.70;99.90
46676;DHT22;32412;51.478;5.694;2023-03-01T02:45:33;-1.80;99.90
46676;DHT22;32412;51.478;5.694;2023-03-01T02:47:59;-1.70;99.90
46676;DHT22;32412;51.478;5.694;2023-03-01T02:50:35;-1.70;99.90
46676;DHT22;32412;51.478;5.694;2023-03-01T02:55:51;-1.70;99.90
46676;DHT22;32412;51.478;5.694;2023-03-01T02:58:20;-1.70;99.90
46676;DHT22;32412;51.478;5.694;2023-03-01T03:00:51;-1.70;99.90
46676;DHT22;32412;51.478;5.694;2023-03-01T03:03:22;-1.60;99.90
46676;DHT22;32412;51.478;5.694;2023-03-01T03:05:51;-1.50;99.90
46676;DHT22;32412;51.478;5.694;2023-03-01T03:08:17;-1.60;99.90
46676;DHT22;32412;51.478;5.694;2023-03-01T03:10:55;-1.60;99.90
46676;DHT22;32412;51.478;5.694;2023-03-01T03:13:41;-1.60;99.90
46676;DHT22;32412;51.478;5.694;2023-03-01T03:16:14;-1.70;99.90
46676;DHT22;32412;51.478;5.694;2023-03-01T03:18:40;-1.70;99.90
46676;DHT22;32412;51.478;5.694;2023-03-01T03:21:11;-1.70;99.90
46676;DHT22;32412;51.478;5.694;2023-03-01T03:23:44;-1.70;99.90
46676;DHT22;32412;51.478;5.694;2023-03-01T03:26:13;-1.70;99.90
46676;DHT22;32412;51.478;5.694;2023-03-01T03:28:40;-1.70;99.90
46676;DHT22;32412;51.478;5.694;2023-03-01T03:31:07;-1.60;99.90
46676;DHT22;32412;51.478;5.694;2023-03-01T03:33:38;-1.50;99.90
46676;DHT22;32412;51.478;5.694;2023-03-01T03:36:09;-1.60;99.90
46676;DHT22;32412;51.478;5.694;2023-03-01T03:38:43;-1.70;99.90
46676;DHT22;32412;51.478;5.694;2023-03-01T03:41:10;-1.70;99.90
46676;DHT22;32412;51.478;5.694;2023-03-01T03:43:38;-1.80;99.90
46676;DHT22;32412;51.478;5.694;2023-03-01T03:46:07;-1.90;99.90
46676;DHT22;32412;51.478;5.694;2023-03-01T03:48:36;-1.90;99.90
46676;DHT22;32412;51.478;5.694;2023-03-01T03:51:05;-2.00;99.90
46676;DHT22;32412;51.478;5.694;2023-03-01T03:53:31;-2.00;99.90
46676;DHT22;32412;51.478;5.694;2023-03-01T03:55:58;-1.90;99.90
46676;DHT22;32412;51.478;5.694;2023-03-01T03:58:25;-2.00;99.90
46676;DHT22;32412;51.478;5.694;2023-03-01T04:01:02;-2.00;99.90
46676;DHT22;32412;51.478;5.694;2023-03-01T04:03:31;-2.00;99.90
46676;DHT22;32412;51.478;5.694;2023-03-01T04:06:01;-2.00;99.90
46676;DHT22;32412;51.478;5.694;2023-03-01T04:08:28;-2.00;99.90
46676;DHT22;32412;51.478;5.694;2023-03-01T04:11:02;-2.10;99.90
46676;DHT22;32412;51.478;5.694;2023-03-01T04:13:48;-2.10;99.90
46676;DHT22;32412;51.478;5.694;2023-03-01T04:16:16;-2.10;99.90
46676;DHT22;32412;51.478;5.694;2023-03-01T04:18:43;-2.00;99.90
46676;DHT22;32412;51.478;5.694;2023-03-01T04:21:09;-2.00;99.90
46676;DHT22;32412;51.478;5.694;2023-03-01T04:23:37;-2.10;99.90
46676;DHT22;32412;51.478;5.694;2023-03-01T04:26:03;-2.10;99.90
46676;DHT22;32412;51.478;5.694;2023-03-01T04:28:34;-2.00;99.90
46676;DHT22;32412;51.478;5.694;2023-03-01T04:31:04;-2.00;99.90
46676;DHT22;32412;51.478;5.694;2023-03-01T04:33:43;-2.00;99.90
46676;DHT22;32412;51.478;5.694;2023-03-01T04:36:10;-2.00;99.90
46676;DHT22;32412;51.478;5.694;2023-03-01T04:38:37;-2.00;99.90
46676;DHT22;32412;51.478;5.694;2023-03-01T04:41:08;-2.00;99.90
46676;DHT22;32412;51.478;5.694;2023-03-01T04:43:36;-2.00;99.90
46676;DHT22;32412;51.478;5.694;2023-03-01T04:46:10;-1.90;99.90
46676;DHT22;32412;51.478;5.694;2023-03-01T04:48:38;-2.00;99.90
46676;DHT22;32412;51.478;5.694;2023-03-01T04:51:07;-2.00;99.90
46676;DHT22;32412;51.478;5.694;2023-03-01T04:56:43;-2.00;99.90
46676;DHT22;32412;51.478;5.694;2023-03-01T04:59:09;-2.00;99.90
46676;DHT22;32412;51.478;5.694;2023-03-01T05:01:40;-1.90;99.90
46676;DHT22;32412;51.478;5.694;2023-03-01T05:04:15;-1.90;99.90
46676;DHT22;32412;51.478;5.694;2023-03-01T05:06:44;-1.90;99.90
46676;DHT22;32412;51.478;5.694;2023-03-01T05:09:10;-1.90;99.90
46676;DHT22;32412;51.478;5.694;2023-03-01T05:11:37;-1.90;99.90
46676;DHT22;32412;51.478;5.694;2023-03-01T05:14:10;-1.90;99.90
46676;DHT22;32412;51.478;5.694;2023-03-01T05:16:42;-1.90;99.90
46676;DHT22;32412;51.478;5.694;2023-03-01T05:19:14;-2.10;99.90
46676;DHT22;32412;51.478;5.694;2023-03-01T05:21:48;-2.10;99.90
46676;DHT22;32412;51.478;5.694;2023-03-01T05:24:46;-2.20;99.90
46676;DHT22;32412;51.478;5.694;2023-03-01T05:27:12;-2.20;99.90
46676;DHT22;32412;51.478;5.694;2023-03-01T05:29:38;-2.20;99.90
46676;DHT22;32412;51.478;5.694;2023-03-01T05:32:07;-2.20;99.90
46676;DHT22;32412;51.478;5.694;2023-03-01T05:34:35;-2.20;99.90
46676;DHT22;32412;51.478;5.694;2023-03-01T05:37:02;-2.20;99.90
46676;DHT22;32412;51.478;5.694;2023-03-01T05:39:31;-2.30;99.90
46676;DHT22;32412;51.478;5.694;2023-03-01T05:42:04;-2.20;99.90
46676;DHT22;32412;51.478;5.694;2023-03-01T05:44:36;-2.20;99.90
46676;DHT22;32412;51.478;5.694;2023-03-01T05:47:32;-2.30;99.90
46676;DHT22;32412;51.478;5.694;2023-03-01T05:50:04;-2.30;99.90
46676;DHT22;32412;51.478;5.694;2023-03-01T05:52:37;-2.40;99.90
46676;DHT22;32412;51.478;5.694;2023-03-01T05:55:03;-2.40;99.90
46676;DHT22;32412;51.478;5.694;2023-03-01T05:57:29;-2.50;99.90
46676;DHT22;32412;51.478;5.694;2023-03-01T05:59:55;-2.60;99.90
46676;DHT22;32412;51.478;5.694;2023-03-01T06:02:31;-2.60;99.90
46676;DHT22;32412;51.478;5.694;2023-03-01T06:04:57;-2.70;99.90
46676;DHT22;32412;51.478;5.694;2023-03-01T06:07:23;-2.60;99.90
46676;DHT22;32412;51.478;5.694;2023-03-01T06:09:49;-2.60;99.90
46676;DHT22;32412;51.478;5.694;2023-03-01T06:12:14;-2.70;99.90
46676;DHT22;32412;51.478;5.694;2023-03-01T06:14:40;-2.60;99.90
46676;DHT22;32412;51.478;5.694;2023-03-01T06:17:06;-2.60;99.90
46676;DHT22;32412;51.478;5.694;2023-03-01T06:19:32;-2.60;99.90
46676;DHT22;32412;51.478;5.694;2023-03-01T06:21:58;-2.60;99.90
46676;DHT22;32412;51.478;5.694;2023-03-01T06:24:26;-2.50;99.90
46676;DHT22;32412;51.478;5.694;2023-03-01T06:26:55;-2.50;99.90
46676;DHT22;32412;51.478;5.694;2023-03-01T06:29:22;-2.50;99.90
46676;DHT22;32412;51.478;5.694;2023-03-01T06:31:51;-2.60;99.90
46676;DHT22;32412;51.478;5.694;2023-03-01T06:34:16;-2.50;99.90
46676;DHT22;32412;51.478;5.694;2023-03-01T06:36:42;-2.60;99.90
46676;DHT22;32412;51.478;5.694;2023-03-01T06:39:08;-2.60;99.90
46676;DHT22;32412;51.478;5.694;2023-03-01T06:41:34;-2.50;99.90
46676;DHT22;32412;51.478;5.694;2023-03-01T06:44:00;-2.50;99.90
46676;DHT22;32412;51.478;5.694;2023-03-01T06:46:26;-2.50;99.90
46676;DHT22;32412;51.478;5.694;2023-03-01T06:48:51;-2.50;99.90
46676;DHT22;32412;51.478;5.694;2023-03-01T06:51:17;-2.50;99.90
46676;DHT22;32412;51.478;5.694;2023-03-01T06:53:49;-2.60;99.90
46676;DHT22;32412;51.478;5.694;2023-03-01T06:56:21;-2.60;99.90
46676;DHT22;32412;51.478;5.694;2023-03-01T06:58:47;-2.60;99.90
46676;DHT22;32412;51.478;5.694;2023-03-01T07:01:12;-2.60;99.90
46676;DHT22;32412;51.478;5.694;2023-03-01T07:03:38;-2.50;99.90
46676;DHT22;32412;51.478;5.694;2023-03-01T07:06:04;-2.60;99.90
46676;DHT22;32412;51.478;5.694;2023-03-01T07:08:29;-2.50;99.90
46676;DHT22;32412;51.478;5.694;2023-03-01T07:10:56;-2.40;99.90
46676;DHT22;32412;51.478;5.694;2023-03-01T07:13:22;-2.40;99.90
46676;DHT22;32412;51.478;5.694;2023-03-01T07:15:48;-2.40;99.90
46676;DHT22;32412;51.478;5.694;2023-03-01T07:18:13;-2.40;99.90
46676;DHT22;32412;51.478;5.694;2023-03-01T07:20:39;-2.30;99.90
46676;DHT22;32412;51.478;5.694;2023-03-01T07:23:06;-2.30;99.90
46676;DHT22;32412;51.478;5.694;2023-03-01T07:25:32;-2.20;99.90
46676;DHT22;32412;51.478;5.694;2023-03-01T07:27:58;-2.10;99.90
46676;DHT22;32412;51.478;5.694;2023-03-01T07:30:24;-2.10;99.90
46676;DHT22;32412;51.478;5.694;2023-03-01T07:32:51;-2.00;99.90
46676;DHT22;32412;51.478;5.694;2023-03-01T07:35:17;-1.90;99.90
46676;DHT22;32412;51.478;5.694;2023-03-01T07:37:43;-1.80;99.90
46676;DHT22;32412;51.478;5.694;2023-03-01T07:40:09;-1.80;99.90
46676;DHT22;32412;51.478;5.694;2023-03-01T07:42:35;-1.70;99.90
46676;DHT22;32412;51.478;5.694;2023-03-01T07:45:01;-1.50;99.90
46676;DHT22;32412;51.478;5.694;2023-03-01T07:47:26;-1.50;99.90
46676;DHT22;32412;51.478;5.694;2023-03-01T07:49:52;-1.40;99.90
46676;DHT22;32412;51.478;5.694;2023-03-01T07:52:17;-1.20;99.90
46676;DHT22;32412;51.478;5.694;2023-03-01T07:54:43;-1.10;99.90
46676;DHT22;32412;51.478;5.694;2023-03-01T07:57:12;-0.90;99.90
46676;DHT22;32412;51.478;5.694;2023-03-01T07:59:38;-0.80;99.90
46676;DHT22;32412;51.478;5.694;2023-03-01T08:02:03;-0.70;99.90
46676;DHT22;32412;51.478;5.694;2023-03-01T08:04:29;-0.50;99.90
46676;DHT22;32412;51.478;5.694;2023-03-01T08:06:55;-0.40;99.90
46676;DHT22;32412;51.478;5.694;2023-03-01T08:09:21;-0.20;99.90
46676;DHT22;32412;51.478;5.694;2023-03-01T08:11:47;-0.10;99.90
46676;DHT22;32412;51.478;5.694;2023-03-01T08:14:13;0.10;99.90
46676;DHT22;32412;51.478;5.694;2023-03-01T08:16:38;0.30;99.90
46676;DHT22;32412;51.478;5.694;2023-03-01T08:19:09;0.50;99.90
46676;DHT22;32412;51.478;5.694;2023-03-01T08:21:35;0.60;99.90
46676;DHT22;32412;51.478;5.694;2023-03-01T08:24:02;0.70;99.90
46676;DHT22;32412;51.478;5.694;2023-03-01T08:26:29;0.80;99.90
46676;DHT22;32412;51.478;5.694;2023-03-01T08:28:54;1.00;99.90
46676;DHT22;32412;51.478;5.694;2023-03-01T08:31:32;1.00;99.90
46676;DHT22;32412;51.478;5.694;2023-03-01T08:33:59;1.10;99.90
46676;DHT22;32412;51.478;5.694;2023-03-01T08:36:32;1.20;99.90
46676;DHT22;32412;51.478;5.694;2023-03-01T08:38:58;1.40;99.90
46676;DHT22;32412;51.478;5.694;2023-03-01T08:41:24;1.50;99.90
46676;DHT22;32412;51.478;5.694;2023-03-01T08:43:50;1.60;99.90
46676;DHT22;32412;51.478;5.694;2023-03-01T08:46:16;1.60;99.90
46676;DHT22;32412;51.478;5.694;2023-03-01T08:48:42;1.80;99.90
46676;DHT22;32412;51.478;5.694;2023-03-01T08:51:20;1.90;99.90
46676;DHT22;32412;51.478;5.694;2023-03-01T08:53:46;1.90;99.90
46676;DHT22;32412;51.478;5.694;2023-03-01T08:56:12;2.00;99.90
46676;DHT22;32412;51.478;5.694;2023-03-01T08:58:38;2.20;99.90
46676;DHT22;32412;51.478;5.694;2023-03-01T09:01:09;2.30;99.90
46676;DHT22;32412;51.478;5.694;2023-03-01T09:03:35;2.40;99.90
46676;DHT22;32412;51.478;5.694;2023-03-01T09:06:02;2.40;99.90
46676;DHT22;32412;51.478;5.694;2023-03-01T09:08:29;2.50;99.90
46676;DHT22;32412;51.478;5.694;2023-03-01T09:10:55;2.50;99.90
46676;DHT22;32412;51.478;5.694;2023-03-01T09:13:21;2.60;99.90
46676;DHT22;32412;51.478;5.694;2023-03-01T09:15:49;2.80;99.90
46676;DHT22;32412;51.478;5.694;2023-03-01T09:18:14;2.90;99.90
46676;DHT22;32412;51.478;5.694;2023-03-01T09:20:40;3.00;99.90
46676;DHT22;32412;51.478;5.694;2023-03-01T09:23:07;3.10;99.90
46676;DHT22;32412;51.478;5.694;2023-03-01T09:25:34;3.20;99.90
46676;DHT22;32412;51.478;5.694;2023-03-01T09:28:00;3.30;99.90
46676;DHT22;32412;51.478;5.694;2023-03-01T09:30:25;3.40;99.90
46676;DHT22;32412;51.478;5.694;2023-03-01T09:32:51;3.40;99.90
46676;DHT22;32412;51.478;5.694;2023-03-01T09:35:17;3.60;99.90
46676;DHT22;32412;51.478;5.694;2023-03-01T09:37:45;3.70;99.90
46676;DHT22;32412;51.478;5.694;2023-03-01T09:40:17;3.90;99.90
46676;DHT22;32412;51.478;5.694;2023-03-01T09:42:58;4.10;99.90
46676;DHT22;32412;51.478;5.694;2023-03-01T09:45:38;4.40;99.90
46676;DHT22;32412;51.478;5.694;2023-03-01T09:48:16;4.70;99.90
46676;DHT22;32412;51.478;5.694;2023-03-01T09:50:44;5.10;99.90
46676;DHT22;32412;51.478;5.694;2023-03-01T09:53:17;5.60;99.90
46676;DHT22;32412;51.478;5.694;2023-03-01T10:00:54;6.70;99.90
46676;DHT22;32412;51.478;5.694;2023-03-01T10:03:43;6.90;99.90
46676;DHT22;32412;51.478;5.694;2023-03-01T10:06:20;7.00;99.90
46676;DHT22;32412;51.478;5.694;2023-03-01T10:09:06;7.30;99.90
46676;DHT22;32412;51.478;5.694;2023-03-01T10:11:38;7.90;99.90
46676;DHT22;32412;51.478;5.694;2023-03-01T10:16:43;8.40;98.60
46676;DHT22;32412;51.478;5.694;2023-03-01T10:22:24;8.90;97.70
46676;DHT22;32412;51.478;5.694;2023-03-01T10:24:54;9.10;97.70
46676;DHT22;32412;51.478;5.694;2023-03-01T10:27:26;10.00;96.90
46676;DHT22;32412;51.478;5.694;2023-03-01T10:32:26;10.20;95.60
46676;DHT22;32412;51.478;5.694;2023-03-01T10:34:52;10.20;95.20
46676;DHT22;32412;51.478;5.694;2023-03-01T10:37:20;10.00;95.40
46676;DHT22;32412;51.478;5.694;2023-03-01T10:40:10;10.70;94.60
46676;DHT22;32412;51.478;5.694;2023-03-01T10:42:39;10.10;94.20
46676;DHT22;32412;51.478;5.694;2023-03-01T10:45:30;9.90;94.70
46676;DHT22;32412;51.478;5.694;2023-03-01T10:50:40;11.00;93.70
46676;DHT22;32412;51.478;5.694;2023-03-01T10:55:45;10.80;93.40
46676;DHT22;32412;51.478;5.694;2023-03-01T10:58:21;11.30;92.60
46676;DHT22;32412;51.478;5.694;2023-03-01T11:00:54;11.50;92.70
46676;DHT22;32412;51.478;5.694;2023-03-01T11:06:21;12.10;91.80
46676;DHT22;32412;51.478;5.694;2023-03-01T11:08:49;12.00;91.10
46676;DHT22;32412;51.478;5.694;2023-03-01T11:13:59;11.10;91.40
46676;DHT22;32412;51.478;5.694;2023-03-01T11:16:37;10.90;91.40
46676;DHT22;32412;51.478;5.694;2023-03-01T11:21:37;12.20;91.10
46676;DHT22;32412;51.478;5.694;2023-03-01T11:24:06;12.70;90.20
46676;DHT22;32412;51.478;5.694;2023-03-01T11:26:39;12.60;90.20
46676;DHT22;32412;51.478;5.694;2023-03-01T11:29:16;12.80;90.00
46676;DHT22;32412;51.478;5.694;2023-03-01T11:31:43;13.10;88.90
46676;DHT22;32412;51.478;5.694;2023-03-01T11:34:23;13.00;88.90
46676;DHT22;32412;51.478;5.694;2023-03-01T11:36:53;12.90;89.10
46676;DHT22;32412;51.478;5.694;2023-03-01T11:42:06;12.30;89.40
46676;DHT22;32412;51.478;5.694;2023-03-01T11:44:36;12.30;89.00
46676;DHT22;32412;51.478;5.694;2023-03-01T11:47:33;12.80;89.00
46676;DHT22;32412;51.478;5.694;2023-03-01T11:52:54;13.30;86.70
46676;DHT22;32412;51.478;5.694;2023-03-01T11:58:23;13.00;87.00
46676;DHT22;32412;51.478;5.694;2023-03-01T12:11:58;12.60;86.30
46676;DHT22;32412;51.478;5.694;2023-03-01T12:20:20;12.50;87.60
46676;DHT22;32412;51.478;5.694;2023-03-01T12:32:10;13.90;86.10
46676;DHT22;32412;51.478;5.694;2023-03-01T12:37:15;13.20;85.80
46676;DHT22;32412;51.478;5.694;2023-03-01T12:50:47;13.40;84.80
46676;DHT22;32412;51.478;5.694;2023-03-01T12:53:24;13.60;85.30
46676;DHT22;32412;51.478;5.694;2023-03-01T12:55:52;14.30;85.60
46676;DHT22;32412;51.478;5.694;2023-03-01T13:01:53;13.40;85.30
46676;DHT22;32412;51.478;5.694;2023-03-01T13:04:57;13.40;86.60
46676;DHT22;32412;51.478;5.694;2023-03-01T13:07:34;12.80;85.70
46676;DHT22;32412;51.478;5.694;2023-03-01T13:17:53;9.90;90.30
46676;DHT22;32412;51.478;5.694;2023-03-01T13:20:26;10.10;90.50
46676;DHT22;32412;51.478;5.694;2023-03-01T13:23:06;10.20;90.50
46676;DHT22;32412;51.478;5.694;2023-03-01T13:25:32;10.60;90.80
46676;DHT22;32412;51.478;5.694;2023-03-01T13:31:02;11.20;89.80
46676;DHT22;32412;51.478;5.694;2023-03-01T13:35:54;11.50;89.80
46676;DHT22;32412;51.478;5.694;2023-03-01T13:38:46;11.40;88.40
46676;DHT22;32412;51.478;5.694;2023-03-01T13:41:16;10.60;89.50
46676;DHT22;32412;51.478;5.694;2023-03-01T13:43:44;10.10;90.20
46676;DHT22;32412;51.478;5.694;2023-03-01T13:46:18;11.00;90.40
46676;DHT22;32412;51.478;5.694;2023-03-01T13:48:49;11.90;89.20
46676;DHT22;32412;51.478;5.694;2023-03-01T13:51:16;12.30;88.50
46676;DHT22;32412;51.478;5.694;2023-03-01T13:53:46;12.40;87.90
46676;DHT22;32412;51.478;5.694;2023-03-01T13:56:23;11.60;88.60
46676;DHT22;32412;51.478;5.694;2023-03-01T13:58:59;11.20;89.10
46676;DHT22;32412;51.478;5.694;2023-03-01T14:01:30;11.10;89.50
46676;DHT22;32412;51.478;5.694;2023-03-01T14:03:56;11.30;88.60
46676;DHT22;32412;51.478;5.694;2023-03-01T14:06:32;11.00;88.60
46676;DHT22;32412;51.478;5.694;2023-03-01T14:19:58;11.90;88.90
46676;DHT22;32412;51.478;5.694;2023-03-01T14:22:27;11.80;87.20
46676;DHT22;32412;51.478;5.694;2023-03-01T14:25:05;11.70;88.00
46676;DHT22;32412;51.478;5.694;2023-03-01T14:27:42;11.70;88.50
46676;DHT22;32412;51.478;5.694;2023-03-01T14:30:27;11.70;87.40
46676;DHT22;32412;51.478;5.694;2023-03-01T14:32:58;12.20;87.40
46676;DHT22;32412;51.478;5.694;2023-03-01T14:35:35;11.90;86.60
46676;DHT22;32412;51.478;5.694;2023-03-01T14:38:01;11.40;87.30
46676;DHT22;32412;51.478;5.694;2023-03-01T14:40:31;11.50;88.60
46676;DHT22;32412;51.478;5.694;2023-03-01T14:42:59;11.40;88.40
46676;DHT22;32412;51.478;5.694;2023-03-01T14:45:27;10.80;90.00
46676;DHT22;32412;51.478;5.694;2023-03-01T14:47:55;10.10;90.40
46676;DHT22;32412;51.478;5.694;2023-03-01T14:50:32;9.50;90.60
46676;DHT22;32412;51.478;5.694;2023-03-01T14:53:05;9.00;91.40
46676;DHT22;32412;51.478;5.694;2023-03-01T14:55:37;9.10;91.80
46676;DHT22;32412;51.478;5.694;2023-03-01T14:58:11;9.90;91.20
46676;DHT22;32412;51.478;5.694;2023-03-01T15:00:38;10.70;90.50
46676;DHT22;32412;51.478;5.694;2023-03-01T15:03:30;11.20;89.80
46676;DHT22;32412;51.478;5.694;2023-03-01T15:05:57;12.00;88.50
46676;DHT22;32412;51.478;5.694;2023-03-01T15:08:25;11.40;88.70
46676;DHT22;32412;51.478;5.694;2023-03-01T15:11:05;10.50;89.20
46676;DHT22;32412;51.478;5.694;2023-03-01T15:13:41;9.70;90.50
46676;DHT22;32412;51.478;5.694;2023-03-01T15:16:10;8.90;91.10
46676;DHT22;32412;51.478;5.694;2023-03-01T15:18:36;8.50;92.20
46676;DHT22;32412;51.478;5.694;2023-03-01T15:21:09;8.20;92.00
46676;DHT22;32412;51.478;5.694;2023-03-01T15:23:36;8.20;91.90
46676;DHT22;32412;51.478;5.694;2023-03-01T15:26:02;8.00;92.00
46676;DHT22;32412;51.478;5.694;2023-03-01T15:28:42;8.00;92.30
46676;DHT22;32412;51.478;5.694;2023-03-01T15:31:20;8.30;92.40
46676;DHT22;32412;51.478;5.694;2023-03-01T15:33:46;8.10;92.40
46676;DHT22;32412;51.478;5.694;2023-03-01T15:36:40;8.10;92.90
46676;DHT22;32412;51.478;5.694;2023-03-01T15:39:33;7.90;93.10
46676;DHT22;32412;51.478;5.694;2023-03-01T15:42:07;7.70;92.90
46676;DHT22;32412;51.478;5.694;2023-03-01T15:44:36;7.60;93.10
46676;DHT22;32412;51.478;5.694;2023-03-01T15:47:08;7.90;93.40
46676;DHT22;32412;51.478;5.694;2023-03-01T15:49:47;8.30;92.00
46676;DHT22;32412;51.478;5.694;2023-03-01T15:52:21;8.60;92.00
46676;DHT22;32412;51.478;5.694;2023-03-01T15:54:57;9.10;91.50
46676;DHT22;32412;51.478;5.694;2023-03-01T15:57:23;9.60;91.30
46676;DHT22;32412;51.478;5.694;2023-03-01T15:59:49;9.50;90.90
46676;DHT22;32412;51.478;5.694;2023-03-01T16:02:14;9.50;91.20
46676;DHT22;32412;51.478;5.694;2023-03-01T16:04:41;9.50;91.40
46676;DHT22;32412;51.478;5.694;2023-03-01T16:07:08;9.50;91.10
46676;DHT22;32412;51.478;5.694;2023-03-01T16:09:34;9.70;91.60
46676;DHT22;32412;51.478;5.694;2023-03-01T16:12:00;9.80;91.70
46676;DHT22;32412;51.478;5.694;2023-03-01T16:14:27;10.20;91.00
46676;DHT22;32412;51.478;5.694;2023-03-01T16:16:53;10.50;91.00
46676;DHT22;32412;51.478;5.694;2023-03-01T16:19:18;10.70;90.50
46676;DHT22;32412;51.478;5.694;2023-03-01T16:21:44;10.70;90.40
46676;DHT22;32412;51.478;5.694;2023-03-01T16:24:12;10.80;90.00
46676;DHT22;32412;51.478;5.694;2023-03-01T16:26:38;10.70;90.90
46676;DHT22;32412;51.478;5.694;2023-03-01T16:29:04;10.30;90.40
46676;DHT22;32412;51.478;5.694;2023-03-01T16:31:30;9.90;90.50
46676;DHT22;32412;51.478;5.694;2023-03-01T16:33:57;9.60;90.60
46676;DHT22;32412;51.478;5.694;2023-03-01T16:36:25;9.30;91.10
46676;DHT22;32412;51.478;5.694;2023-03-01T16:38:51;9.30;91.20
46676;DHT22;32412;51.478;5.694;2023-03-01T16:41:20;9.10;91.20
46676;DHT22;32412;51.478;5.694;2023-03-01T16:43:46;8.90;91.30
46676;DHT22;32412;51.478;5.694;2023-03-01T16:46:14;8.70;91.40
46676;DHT22;32412;51.478;5.694;2023-03-01T16:48:40;8.90;91.50
46676;DHT22;32412;51.478;5.694;2023-03-01T16:51:06;9.00;91.40
46676;DHT22;32412;51.478;5.694;2023-03-01T16:53:33;8.70;91.60
46676;DHT22;32412;51.478;5.694;2023-03-01T16:56:02;8.10;92.20
46676;DHT22;32412;51.478;5.694;2023-03-01T16:58:28;7.60;93.10
46676;DHT22;32412;51.478;5.694;2023-03-01T17:00:54;7.20;93.40
46676;DHT22;32412;51.478;5.694;2023-03-01T17:03:22;7.00;94.40
46676;DHT22;32412;51.478;5.694;2023-03-01T17:05:48;6.70;94.70
46676;DHT22;32412;51.478;5.694;2023-03-01T17:08:14;6.50;95.30
46676;DHT22;32412;51.478;5.694;2023-03-01T17:10:39;6.40;95.80
46676;DHT22;32412;51.478;5.694;2023-03-01T17:13:07;6.20;96.10
46676;DHT22;32412;51.478;5.694;2023-03-01T17:15:34;6.10;96.50
46676;DHT22;32412;51.478;5.694;2023-03-01T17:18:00;6.00;97.20
46676;DHT22;32412;51.478;5.694;2023-03-01T17:20:26;5.80;97.40
46676;DHT22;32412;51.478;5.694;2023-03-01T17:22:52;5.80;98.20
46676;DHT22;32412;51.478;5.694;2023-03-01T17:25:18;5.60;98.50
46676;DHT22;32412;51.478;5.694;2023-03-01T17:27:44;5.60;98.50
46676;DHT22;32412;51.478;5.694;2023-03-01T17:30:11;5.50;99.20
46676;DHT22;32412;51.478;5.694;2023-03-01T17:32:37;5.30;99.70
46676;DHT22;32412;51.478;5.694;2023-03-01T17:35:03;5.30;99.90
46676;DHT22;32412;51.478;5.694;2023-03-01T17:37:29;5.10;99.90
46676;DHT22;32412;51.478;5.694;2023-03-01T17:39:54;5.10;99.90
46676;DHT22;32412;51.478;5.694;2023-03-01T17:42:20;4.90;99.90
46676;DHT22;32412;51.478;5.694;2023-03-01T17:44:46;4.80;99.90
46676;DHT22;32412;51.478;5.694;2023-03-01T17:47:11;4.80;99.90